Time;durP1;ratioP1;P1;durP2;ratioP2;P2;SDS_P1;SDS_P2;PMS_P1;PMS_P2;Temp;Humidity;BMP_temperature;BMP_pressure;BME280_temperature;BME280_humidity;BME280_pressure;Samples;Min_cycle;Max_cycle;Signal;HPM_P1;HPM_P2
2021/11/08 00:02:07;;;;;;;1.86;1.73;;;;;;;19.02;57.51;100866.86;;;;-54
2021/11/08 00:05:07;;;;;;;1.75;1.65;;;;;;;19.01;57.46;100878.20;;;;-56
2021/11/08 00:08:07;;;;;;;2.45;1.69;;;;;;;19.00;57.46;100878.28;;;;-51
2021/11/08 00:11:07;;;;;;;2.09;1.89;;;;;;;18.98;57.55;100879.55;;;;-51
2021/11/08 00:14:10;;;;;;;2.02;1.81;;;;;;;18.96;57.44;100875.62;;;;-51
2021/11/08 00:17:15;;;;;;;1.95;1.83;;;;;;;18.95;57.46;100878.63;;;;-60
2021/11/08 00:20:11;;;;;;;2.55;1.90;;;;;;;18.94;57.44;100879.17;;;;-60
2021/11/08 00:23:08;;;;;;;1.95;1.75;;;;;;;18.93;57.45;100880.14;;;;-59
2021/11/08 00:26:07;;;;;;;1.97;1.73;;;;;;;18.93;57.40;100884.69;;;;-50
2021/11/08 00:29:07;;;;;;;1.89;1.79;;;;;;;18.92;57.53;100888.72;;;;-60
2021/11/08 00:32:07;;;;;;;2.79;1.75;;;;;;;18.91;57.41;100885.88;;;;-60
2021/11/08 00:35:07;;;;;;;1.95;1.77;;;;;;;18.89;57.48;100887.87;;;;-60
2021/11/08 00:38:07;;;;;;;2.01;1.86;;;;;;;18.88;57.46;100900.11;;;;-57
2021/11/08 00:41:07;;;;;;;2.19;1.97;;;;;;;18.87;57.53;100907.02;;;;-56
2021/11/08 00:44:07;;;;;;;1.97;1.79;;;;;;;18.86;57.50;100903.81;;;;-56
2021/11/08 00:47:08;;;;;;;2.11;1.91;;;;;;;18.85;57.45;100903.65;;;;-56
2021/11/08 00:50:07;;;;;;;2.21;2.01;;;;;;;18.84;57.48;100903.78;;;;-50
2021/11/08 00:53:07;;;;;;;1.95;1.76;;;;;;;18.83;57.53;100903.78;;;;-51
2021/11/08 00:56:11;;;;;;;2.58;1.89;;;;;;;18.82;57.53;100905.48;;;;-51
2021/11/08 00:59:07;;;;;;;1.99;1.82;;;;;;;18.81;57.45;100900.81;;;;-57
2021/11/08 01:02:07;;;;;;;2.07;1.87;;;;;;;18.81;57.47;100896.11;;;;-51
2021/11/08 01:05:07;;;;;;;2.39;1.91;;;;;;;18.81;57.53;100890.10;;;;-51
2021/11/08 01:08:07;;;;;;;2.28;1.87;;;;;;;18.78;57.51;100894.61;;;;-60
2021/11/08 01:11:07;;;;;;;1.81;1.71;;;;;;;18.77;57.52;100900.64;;;;-61
2021/11/08 01:14:07;;;;;;;2.35;1.90;;;;;;;18.77;57.53;100902.09;;;;-60
2021/11/08 01:17:07;;;;;;;2.11;1.91;;;;;;;18.76;57.51;100900.64;;;;-60
2021/11/08 01:20:07;;;;;;;2.01;1.81;;;;;;;18.75;57.47;100903.77;;;;-60
2021/11/08 01:23:07;;;;;;;2.14;1.94;;;;;;;18.74;57.44;100900.12;;;;-60
2021/11/08 01:26:08;;;;;;;2.29;2.02;;;;;;;18.73;57.46;100896.52;;;;-50
2021/11/08 01:29:08;;;;;;;2.17;1.97;;;;;;;18.72;57.48;100901.30;;;;-50
2021/11/08 01:32:07;;;;;;;2.22;2.03;;;;;;;18.71;57.47;100905.98;;;;-50
2021/11/08 01:35:07;;;;;;;3.05;1.98;;;;;;;18.71;57.44;100910.52;;;;-55
2021/11/08 01:38:09;;;;;;;1.96;1.76;;;;;;;18.70;57.46;100912.06;;;;-52
2021/11/08 01:41:07;;;;;;;2.09;1.91;;;;;;;18.70;57.42;100914.02;;;;-51
2021/11/08 01:44:07;;;;;;;1.96;1.86;;;;;;;18.70;57.48;100914.42;;;;-51
2021/11/08 01:47:07;;;;;;;2.23;2.00;;;;;;;18.67;57.45;100914.59;;;;-50
2021/11/08 01:50:07;;;;;;;2.12;1.92;;;;;;;18.67;57.40;100915.98;;;;-51
2021/11/08 01:53:07;;;;;;;1.93;1.83;;;;;;;18.67;57.39;100912.08;;;;-50
2021/11/08 01:56:07;;;;;;;2.24;2.04;;;;;;;18.66;57.35;100911.02;;;;-57
2021/11/08 01:59:07;;;;;;;2.19;1.99;;;;;;;18.65;57.40;100912.70;;;;-56
2021/11/08 02:02:07;;;;;;;2.36;2.11;;;;;;;18.65;57.35;100917.89;;;;-56
2021/11/08 02:05:07;;;;;;;2.31;2.11;;;;;;;18.64;57.39;100921.95;;;;-57
2021/11/08 02:08:07;;;;;;;2.25;2.05;;;;;;;18.64;57.38;100930.88;;;;-57
2021/11/08 02:11:07;;;;;;;2.14;1.91;;;;;;;18.63;57.34;100931.33;;;;-56
2021/11/08 02:14:07;;;;;;;2.36;1.99;;;;;;;18.62;57.35;100936.12;;;;-51
2021/11/08 02:17:07;;;;;;;2.20;2.00;;;;;;;18.62;57.36;100943.59;;;;-60
2021/11/08 02:20:07;;;;;;;2.29;2.09;;;;;;;18.61;57.33;100945.83;;;;-59
2021/11/08 02:23:07;;;;;;;3.94;2.12;;;;;;;18.59;57.37;100943.44;;;;-60
2021/11/08 02:26:11;;;;;;;2.02;1.84;;;;;;;18.60;57.37;100950.53;;;;-60
2021/11/08 02:29:07;;;;;;;2.31;2.10;;;;;;;18.58;57.39;100946.92;;;;-60
2021/11/08 02:32:07;;;;;;;2.15;1.95;;;;;;;18.58;57.37;100947.17;;;;-60
2021/11/08 02:35:07;;;;;;;2.30;2.10;;;;;;;18.58;57.36;100948.70;;;;-51
2021/11/08 02:38:08;;;;;;;2.06;1.90;;;;;;;18.57;57.37;100952.00;;;;-57
2021/11/08 02:41:07;;;;;;;2.91;2.02;;;;;;;18.56;57.40;100957.84;;;;-57
2021/11/08 02:44:07;;;;;;;2.17;1.97;;;;;;;18.55;57.34;100948.14;;;;-60
2021/11/08 02:47:07;;;;;;;2.28;2.07;;;;;;;18.54;57.36;100945.63;;;;-60
2021/11/08 02:50:07;;;;;;;2.20;2.00;;;;;;;18.53;57.38;100951.28;;;;-51
2021/11/08 02:53:11;;;;;;;2.65;2.30;;;;;;;18.53;57.41;100949.33;;;;-60
2021/11/08 02:56:07;;;;;;;2.87;2.20;;;;;;;18.53;57.37;100943.81;;;;-51
2021/11/08 02:59:07;;;;;;;2.60;2.25;;;;;;;18.53;57.38;100941.78;;;;-51
2021/11/08 03:02:07;;;;;;;2.45;2.25;;;;;;;18.51;57.38;100940.64;;;;-59
2021/11/08 03:05:07;;;;;;;2.55;2.13;;;;;;;18.51;57.39;100942.15;;;;-51
2021/11/08 03:08:09;;;;;;;3.61;2.35;;;;;;;18.50;57.39;100939.71;;;;-51
2021/11/08 03:11:08;;;;;;;2.36;2.16;;;;;;;18.49;57.42;100937.19;;;;-60
2021/11/08 03:14:09;;;;;;;2.31;2.11;;;;;;;18.50;57.36;100940.44;;;;-57
2021/11/08 03:17:08;;;;;;;2.41;2.21;;;;;;;18.49;57.39;100944.39;;;;-60
2021/11/08 03:20:10;;;;;;;2.53;2.25;;;;;;;18.49;57.36;100944.91;;;;-51
2021/11/08 03:23:08;;;;;;;2.60;2.39;;;;;;;18.48;57.38;100942.92;;;;-51
2021/11/08 03:26:14;;;;;;;2.73;2.36;;;;;;;18.47;57.39;100945.27;;;;-52
2021/11/08 03:29:10;;;;;;;2.51;2.31;;;;;;;18.47;57.39;100947.14;;;;-51
2021/11/08 03:32:07;;;;;;;2.81;2.29;;;;;;;18.46;57.33;100947.92;;;;-51
2021/11/08 03:35:06;;;;;;;2.33;2.13;;;;;;;18.47;57.38;100946.95;;;;-51
2021/11/08 03:38:08;;;;;;;2.66;2.38;;;;;;;18.45;57.36;100943.94;;;;-60
2021/11/08 03:41:07;;;;;;;2.37;2.17;;;;;;;18.44;57.41;100949.83;;;;-50
2021/11/08 03:44:07;;;;;;;2.64;2.43;;;;;;;18.44;57.41;100955.10;;;;-56
2021/11/08 03:47:07;;;;;;;2.55;2.29;;;;;;;18.43;57.38;100956.07;;;;-51
2021/11/08 03:50:07;;;;;;;2.51;2.31;;;;;;;18.43;57.43;100954.66;;;;-51
2021/11/08 03:53:07;;;;;;;2.57;2.37;;;;;;;18.42;57.40;100958.55;;;;-51
2021/11/08 03:56:06;;;;;;;2.76;2.29;;;;;;;18.42;57.41;100956.52;;;;-51
2021/11/08 03:59:07;;;;;;;2.55;2.35;;;;;;;18.42;57.47;100962.04;;;;-57
2021/11/08 04:02:07;;;;;;;2.87;2.60;;;;;;;18.41;57.43;100966.58;;;;-50
2021/11/08 04:05:07;;;;;;;2.61;2.38;;;;;;;18.40;57.43;100969.88;;;;-50
2021/11/08 04:08:08;;;;;;;2.61;2.41;;;;;;;18.40;57.44;100966.55;;;;-50
2021/11/08 04:11:07;;;;;;;2.47;2.27;;;;;;;18.39;57.44;100970.28;;;;-50
2021/11/08 04:14:07;;;;;;;2.73;2.50;;;;;;;18.39;57.47;100976.03;;;;-50
2021/11/08 04:17:06;;;;;;;2.72;2.52;;;;;;;18.38;57.47;100968.38;;;;-50
2021/11/08 04:20:07;;;;;;;2.72;2.51;;;;;;;18.38;57.45;100971.95;;;;-52
2021/11/08 04:23:07;;;;;;;2.52;2.32;;;;;;;18.38;57.45;100970.73;;;;-50
2021/11/08 04:26:07;;;;;;;2.72;2.52;;;;;;;18.37;57.48;100970.72;;;;-60
2021/11/08 04:29:07;;;;;;;2.62;2.42;;;;;;;18.36;57.49;100973.13;;;;-60
2021/11/08 04:32:07;;;;;;;2.57;2.37;;;;;;;18.35;57.47;100971.91;;;;-60
2021/11/08 04:35:11;;;;;;;2.59;2.39;;;;;;;18.36;57.42;100968.34;;;;-57
2021/11/08 04:38:15;;;;;;;3.06;2.53;;;;;;;18.35;57.42;100971.09;;;;-52
2021/11/08 04:41:17;;;;;;;2.83;2.48;;;;;;;18.36;57.47;100981.08;;;;-57
2021/11/08 04:44:21;;;;;;;2.58;2.38;;;;;;;18.35;57.42;100982.53;;;;-60
2021/11/08 04:47:48;;;;;;;3.20;2.46;;;;;;;18.35;57.49;100981.39;;;;-52
2021/11/08 04:50:20;;;;;;;2.75;2.45;;;;;;;18.34;57.48;100979.37;;;;-51
2021/11/08 04:53:24;;;;;;;2.69;2.48;;;;;;;18.34;57.45;100992.07;;;;-50
2021/11/08 04:56:38;;;;;;;2.80;2.53;;;;;;;18.33;57.44;100992.23;;;;-56
2021/11/08 05:21:39;;;;;;;2.50;2.29;;;;;;;18.29;57.41;101002.38;;;;-51
2021/11/08 05:32:07;;;;;;;2.74;2.54;;;;;;;18.27;57.46;101010.94;;;;-50
2021/11/08 05:35:07;;;;;;;2.71;2.44;;;;;;;18.27;57.46;101008.82;;;;-60
2021/11/08 05:38:10;;;;;;;2.68;2.48;;;;;;;18.27;57.49;101012.14;;;;-59
2021/11/08 05:41:07;;;;;;;2.57;2.37;;;;;;;18.27;57.46;101011.02;;;;-60
2021/11/08 05:44:07;;;;;;;2.71;2.51;;;;;;;18.26;57.48;101008.17;;;;-51
2021/11/08 05:47:07;;;;;;;2.90;2.60;;;;;;;18.25;57.46;101017.78;;;;-50
2021/11/08 05:50:07;;;;;;;2.95;2.55;;;;;;;18.26;57.49;101020.80;;;;-50
2021/11/08 05:53:08;;;;;;;2.60;2.40;;;;;;;18.25;57.48;101024.84;;;;-50
2021/11/08 05:56:14;;;;;;;2.59;2.39;;;;;;;18.25;57.49;101031.58;;;;-60
2021/11/08 05:59:19;;;;;;;2.54;2.31;;;;;;;18.25;57.53;101036.04;;;;-60
2021/11/08 06:48:49;;;;;;;2.49;2.25;;;;;;;18.28;57.58;101049.88;;;;-51
2021/11/08 06:51:07;;;;;;;2.37;2.17;;;;;;;18.29;57.58;101051.30;;;;-60
2021/11/08 06:54:07;;;;;;;2.40;2.20;;;;;;;18.28;57.53;101058.03;;;;-60
2021/11/08 06:57:11;;;;;;;2.47;2.21;;;;;;;18.29;57.56;101070.28;;;;-57
2021/11/08 07:00:06;;;;;;;2.59;2.39;;;;;;;18.29;57.55;101070.13;;;;-60
2021/11/08 07:03:06;;;;;;;2.33;2.13;;;;;;;18.30;57.58;101078.64;;;;-50
2021/11/08 07:06:07;;;;;;;2.26;2.06;;;;;;;18.30;57.53;101086.84;;;;-50
2021/11/08 07:09:07;;;;;;;2.40;2.20;;;;;;;18.28;57.55;101089.51;;;;-57
2021/11/08 07:12:07;;;;;;;2.50;2.30;;;;;;;18.28;57.57;101092.91;;;;-51
2021/11/08 07:15:07;;;;;;;2.59;2.39;;;;;;;18.28;57.58;101088.83;;;;-59
2021/11/08 07:18:06;;;;;;;2.39;2.19;;;;;;;18.28;57.54;101087.64;;;;-59
2021/11/08 07:21:07;;;;;;;2.25;2.05;;;;;;;18.28;57.53;101081.63;;;;-50
2021/11/08 07:24:07;;;;;;;2.39;2.19;;;;;;;18.27;57.56;101085.41;;;;-60
2021/11/08 07:27:07;;;;;;;2.41;2.21;;;;;;;18.26;57.58;101091.25;;;;-57
2021/11/08 07:30:06;;;;;;;2.30;2.10;;;;;;;18.26;57.58;101092.88;;;;-51
2021/11/08 07:33:07;;;;;;;2.55;2.35;;;;;;;18.26;57.60;101101.35;;;;-57
2021/11/08 07:36:07;;;;;;;2.59;2.39;;;;;;;18.25;57.61;101104.03;;;;-60
2021/11/08 07:39:07;;;;;;;2.44;2.24;;;;;;;18.25;57.65;101102.57;;;;-56
2021/11/08 07:42:07;;;;;;;2.40;2.20;;;;;;;18.26;57.59;101104.77;;;;-60
2021/11/08 07:45:06;;;;;;;2.41;2.21;;;;;;;18.25;57.62;101110.84;;;;-51
2021/11/08 07:48:07;;;;;;;2.40;2.20;;;;;;;18.24;57.62;101117.86;;;;-60
2021/11/08 07:51:06;;;;;;;2.97;2.26;;;;;;;18.24;57.66;101117.70;;;;-52
2021/11/08 07:54:07;;;;;;;2.38;2.17;;;;;;;18.23;57.59;101125.00;;;;-52
2021/11/08 07:57:07;;;;;;;2.38;2.18;;;;;;;18.23;57.62;101121.83;;;;-60
2021/11/08 08:00:07;;;;;;;2.51;2.31;;;;;;;18.23;57.65;101133.92;;;;-60
2021/11/08 08:03:07;;;;;;;2.41;2.21;;;;;;;18.23;57.66;101136.84;;;;-56
2021/11/08 08:06:07;;;;;;;2.42;2.22;;;;;;;18.23;57.65;101138.70;;;;-56
2021/11/08 08:09:07;;;;;;;2.50;2.30;;;;;;;18.24;57.62;101132.95;;;;-51
2021/11/08 08:12:06;;;;;;;2.37;2.17;;;;;;;18.23;57.62;101136.27;;;;-51
2021/11/08 08:15:06;;;;;;;2.49;2.29;;;;;;;18.22;57.61;101135.05;;;;-51
2021/11/08 08:18:07;;;;;;;2.82;2.41;;;;;;;18.22;57.63;101133.67;;;;-56
2021/11/08 08:21:08;;;;;;;2.32;2.12;;;;;;;18.22;57.64;101129.58;;;;-60
2021/11/08 08:24:06;;;;;;;2.32;2.12;;;;;;;18.21;57.63;101131.52;;;;-51
2021/11/08 08:27:07;;;;;;;2.47;2.15;;;;;;;18.21;57.64;101129.49;;;;-51
2021/11/08 08:30:07;;;;;;;2.37;2.17;;;;;;;18.20;57.64;101128.76;;;;-56
2021/11/08 08:33:07;;;;;;;2.43;2.23;;;;;;;18.20;57.62;101126.73;;;;-56
2021/11/08 08:36:07;;;;;;;2.32;2.12;;;;;;;18.21;57.64;101131.77;;;;-60
2021/11/08 08:39:07;;;;;;;2.26;2.06;;;;;;;18.21;57.61;101134.84;;;;-51
2021/11/08 08:42:06;;;;;;;2.30;2.10;;;;;;;18.21;57.65;101132.17;;;;-50
2021/11/08 08:45:07;;;;;;;2.65;2.41;;;;;;;18.20;57.60;101133.70;;;;-59
2021/11/08 08:48:06;;;;;;;5.59;3.98;;;;;;;18.14;55.72;101141.76;;;;-58
2021/11/08 08:51:07;;;;;;;6.25;4.74;;;;;;;18.01;54.90;101133.81;;;;-55
2021/11/08 08:54:06;;;;;;;9.60;4.98;;;;;;;18.00;55.09;101136.00;;;;-54
2021/11/08 08:57:07;;;;;;;8.30;3.92;;;;;;;18.02;55.83;101134.02;;;;-59
2021/11/08 09:00:06;;;;;;;6.17;3.99;;;;;;;18.08;56.12;101133.10;;;;-59
2021/11/08 09:03:06;;;;;;;5.85;3.72;;;;;;;18.12;56.27;101132.46;;;;-58
2021/11/08 09:06:06;;;;;;;5.01;3.51;;;;;;;18.15;56.35;101136.58;;;;-58
2021/11/08 09:09:06;;;;;;;5.63;3.53;;;;;;;18.18;56.46;101140.15;;;;-58
2021/11/08 09:12:06;;;;;;;4.24;3.16;;;;;;;18.21;56.58;101142.47;;;;-58
2021/11/08 09:15:07;;;;;;;5.99;3.31;;;;;;;18.23;56.79;101140.49;;;;-59
2021/11/08 09:18:06;;;;;;;4.52;3.10;;;;;;;18.28;57.19;101142.89;;;;-49
2021/11/08 09:21:07;;;;;;;4.42;2.89;;;;;;;18.33;57.47;101145.75;;;;-49
2021/11/08 09:24:07;;;;;;;3.73;3.08;;;;;;;18.39;57.47;101148.64;;;;-49
2021/11/08 09:27:06;;;;;;;3.47;2.81;;;;;;;18.44;57.72;101153.28;;;;-47
2021/11/08 09:30:06;;;;;;;4.81;2.79;;;;;;;18.48;57.79;101151.75;;;;-59
2021/11/08 09:33:06;;;;;;;4.11;2.83;;;;;;;18.54;57.90;101156.09;;;;-59
2021/11/08 09:36:08;;;;;;;4.97;2.88;;;;;;;18.59;58.02;101157.81;;;;-49
2021/11/08 09:39:09;;;;;;;3.81;2.90;;;;;;;18.63;58.13;101156.03;;;;-56
2021/11/08 09:42:08;;;;;;;3.71;2.67;;;;;;;18.69;58.18;101162.90;;;;-51
2021/11/08 09:45:07;;;;;;;3.64;2.63;;;;;;;18.74;58.06;101164.57;;;;-51
2021/11/08 09:48:10;;;;;;;3.51;2.48;;;;;;;18.78;57.95;101163.55;;;;-59
2021/11/08 09:51:06;;;;;;;4.04;2.58;;;;;;;18.82;57.52;101167.82;;;;-51
2021/11/08 09:54:06;;;;;;;3.59;2.79;;;;;;;18.84;57.61;101165.37;;;;-48
2021/11/08 09:57:06;;;;;;;3.03;2.55;;;;;;;18.88;57.59;101168.22;;;;-49
2021/11/08 10:00:06;;;;;;;3.10;2.62;;;;;;;18.91;57.44;101170.30;;;;-49
2021/11/08 10:03:07;;;;;;;3.25;2.76;;;;;;;18.94;57.47;101169.37;;;;-49
2021/11/08 10:06:06;;;;;;;3.15;2.56;;;;;;;18.97;58.02;101169.69;;;;-46
2021/11/08 10:09:06;;;;;;;3.21;2.60;;;;;;;19.00;57.95;101168.52;;;;-47
2021/11/08 10:12:06;;;;;;;3.06;2.42;;;;;;;19.03;58.08;101165.30;;;;-54
2021/11/08 10:15:06;;;;;;;3.27;2.62;;;;;;;19.05;58.06;101163.56;;;;-48
2021/11/08 10:18:06;;;;;;;2.99;2.57;;;;;;;19.07;58.16;101158.52;;;;-46
2021/11/08 10:21:06;;;;;;;4.19;2.39;;;;;;;19.10;58.09;101159.20;;;;-51
2021/11/08 10:24:06;;;;;;;3.21;2.43;;;;;;;19.12;58.07;101156.73;;;;-43
2021/11/08 10:27:06;;;;;;;3.43;2.57;;;;;;;19.13;58.10;101156.48;;;;-51
2021/11/08 10:30:07;;;;;;;3.17;2.53;;;;;;;19.15;57.88;101153.77;;;;-50
2021/11/08 10:33:06;;;;;;;3.49;2.60;;;;;;;19.17;57.77;101151.69;;;;-57
2021/11/08 10:36:07;;;;;;;3.65;2.64;;;;;;;19.18;57.91;101149.21;;;;-59
2021/11/08 10:39:06;;;;;;;5.47;2.65;;;;;;;19.21;57.86;101149.73;;;;-46
2021/11/08 10:42:06;;;;;;;3.67;2.45;;;;;;;19.21;57.60;101144.62;;;;-50
2021/11/08 10:45:07;;;;;;;4.16;2.55;;;;;;;19.22;57.45;101144.24;;;;-50
2021/11/08 10:48:06;;;;;;;2.88;2.39;;;;;;;19.22;57.36;101147.41;;;;-50
2021/11/08 10:51:07;;;;;;;4.33;2.58;;;;;;;19.21;57.51;101151.93;;;;-50
2021/11/08 10:54:07;;;;;;;2.82;2.28;;;;;;;19.23;57.63;101143.52;;;;-59
2021/11/08 10:57:07;;;;;;;3.19;2.59;;;;;;;19.24;57.71;101141.52;;;;-57
2021/11/08 11:00:06;;;;;;;3.05;2.43;;;;;;;19.26;57.69;101143.96;;;;-52
2021/11/08 11:03:07;;;;;;;3.27;2.25;;;;;;;19.26;57.70;101143.31;;;;-48
2021/11/08 11:06:07;;;;;;;3.75;2.39;;;;;;;19.27;57.65;101144.08;;;;-57
2021/11/08 11:09:07;;;;;;;3.75;2.47;;;;;;;19.28;57.71;101140.78;;;;-49
2021/11/08 11:12:07;;;;;;;5.53;2.65;;;;;;;19.29;57.68;101140.22;;;;-47
2021/11/08 11:15:08;;;;;;;4.27;2.59;;;;;;;19.30;57.82;101141.59;;;;-46
2021/11/08 11:18:07;;;;;;;4.29;2.47;;;;;;;19.32;57.67;101134.84;;;;-56
2021/11/08 11:21:06;;;;;;;9.59;2.47;;;;;;;19.32;57.51;101128.91;;;;-57
2021/11/08 11:24:10;;;;;;;2.98;2.38;;;;;;;19.32;57.35;101127.12;;;;-57
2021/11/08 11:27:09;;;;;;;3.39;2.37;;;;;;;19.31;57.32;101127.49;;;;-48
2021/11/08 11:30:06;;;;;;;3.62;2.62;;;;;;;19.31;57.30;101125.70;;;;-51
2021/11/08 11:33:07;;;;;;;4.60;2.38;;;;;;;19.30;57.25;101126.67;;;;-57
2021/11/08 11:36:07;;;;;;;3.13;2.49;;;;;;;19.29;57.24;101122.17;;;;-57
2021/11/08 11:39:07;;;;;;;6.20;2.32;;;;;;;19.29;57.26;101116.97;;;;-46
2021/11/08 11:42:07;;;;;;;2.81;2.35;;;;;;;19.29;57.15;101113.97;;;;-48
2021/11/08 11:45:06;;;;;;;2.96;2.23;;;;;;;19.28;57.14;101114.69;;;;-57
2021/11/08 11:48:06;;;;;;;3.45;2.51;;;;;;;19.28;57.13;101118.76;;;;-48
2021/11/08 11:51:07;;;;;;;2.76;2.23;;;;;;;19.28;57.15;101119.33;;;;-51
2021/11/08 11:54:06;;;;;;;2.63;2.33;;;;;;;19.28;57.12;101117.95;;;;-51
2021/11/08 11:57:07;;;;;;;2.62;2.39;;;;;;;19.28;57.09;101117.95;;;;-51
2021/11/08 12:00:07;;;;;;;2.99;2.45;;;;;;;19.27;57.08;101116.77;;;;-57
2021/11/08 12:03:06;;;;;;;3.37;2.35;;;;;;;19.28;57.06;101116.86;;;;-57
2021/11/08 12:06:07;;;;;;;2.89;2.33;;;;;;;19.27;57.11;101115.88;;;;-51
2021/11/08 12:09:07;;;;;;;2.40;2.11;;;;;;;19.28;57.05;101117.67;;;;-45
2021/11/08 12:12:07;;;;;;;2.83;2.37;;;;;;;19.27;57.07;101117.83;;;;-48
2021/11/08 12:15:09;;;;;;;3.87;2.55;;;;;;;19.27;57.04;101117.27;;;;-51
2021/11/08 12:18:08;;;;;;;2.92;2.29;;;;;;;19.27;57.04;101114.50;;;;-48
2021/11/08 12:21:11;;;;;;;6.75;2.29;;;;;;;19.27;57.26;101112.30;;;;-51
2021/11/08 12:24:07;;;;;;;2.69;2.33;;;;;;;19.27;57.61;101107.27;;;;-54
2021/11/08 12:27:07;;;;;;;3.18;2.21;;;;;;;19.28;57.56;101102.39;;;;-48
2021/11/08 12:30:06;;;;;;;2.87;2.30;;;;;;;19.28;57.55;101104.86;;;;-50
2021/11/08 12:33:07;;;;;;;3.20;2.38;;;;;;;19.29;57.57;101099.91;;;;-59
2021/11/08 12:36:06;;;;;;;5.23;2.37;;;;;;;19.33;57.89;101093.96;;;;-59
2021/11/08 12:39:14;;;;;;;3.18;2.39;;;;;;;19.34;57.76;101095.22;;;;-45
2021/11/08 12:42:08;;;;;;;5.19;2.34;;;;;;;19.37;57.71;101097.36;;;;-60
2021/11/08 12:45:23;;;;;;;6.63;2.39;;;;;;;19.38;57.51;101094.03;;;;-61
2021/11/08 12:48:07;;;;;;;3.33;2.02;;;;;;;19.38;57.42;101093.55;;;;-52
2021/11/08 12:51:06;;;;;;;5.39;2.47;;;;;;;19.37;57.44;101089.64;;;;-51
2021/11/08 12:54:07;;;;;;;8.03;3.30;;;;;;;19.33;56.57;101094.05;;;;-58
2021/11/08 12:57:06;;;;;;;5.95;3.07;;;;;;;19.33;56.28;101094.20;;;;-52
2021/11/08 13:00:07;;;;;;;3.77;2.61;;;;;;;19.32;56.63;101093.12;;;;-51
2021/11/08 13:03:12;;;;;;;4.03;2.51;;;;;;;19.30;56.73;101096.53;;;;-50
2021/11/08 13:06:08;;;;;;;3.99;2.37;;;;;;;19.28;56.88;101095.03;;;;-52
2021/11/08 13:09:07;;;;;;;4.70;2.37;;;;;;;19.28;56.92;101090.69;;;;-58
2021/11/08 13:12:06;;;;;;;3.64;2.29;;;;;;;19.26;56.95;101091.14;;;;-51
2021/11/08 13:15:06;;;;;;;6.27;2.45;;;;;;;19.25;56.92;101088.22;;;;-59
2021/11/08 13:18:08;;;;;;;4.16;2.65;;;;;;;19.23;57.03;101085.25;;;;-51
2021/11/08 13:21:06;;;;;;;4.39;2.61;;;;;;;19.22;56.96;101084.69;;;;-58
2021/11/08 13:24:06;;;;;;;3.59;2.50;;;;;;;19.21;56.99;101092.53;;;;-59
2021/11/08 13:27:08;;;;;;;3.75;2.12;;;;;;;19.20;57.06;101087.98;;;;-50
2021/11/08 13:30:06;;;;;;;4.05;2.28;;;;;;;19.19;57.05;101086.81;;;;-50
2021/11/08 13:33:07;;;;;;;2.79;2.35;;;;;;;19.18;56.99;101088.19;;;;-51
2021/11/08 13:36:07;;;;;;;5.22;2.48;;;;;;;19.16;57.08;101085.55;;;;-58
2021/11/08 13:39:06;;;;;;;4.32;2.48;;;;;;;19.14;57.02;101086.98;;;;-51
2021/11/08 13:42:06;;;;;;;4.31;2.32;;;;;;;19.13;57.04;101088.33;;;;-50
2021/11/08 13:45:06;;;;;;;2.68;2.23;;;;;;;19.12;57.07;101088.40;;;;-51
2021/11/08 13:48:06;;;;;;;4.14;2.23;;;;;;;19.10;57.02;101086.82;;;;-51
2021/11/08 13:51:06;;;;;;;3.58;2.19;;;;;;;19.09;57.09;101091.53;;;;-51
2021/11/08 13:54:06;;;;;;;3.73;2.35;;;;;;;19.08;57.13;101092.80;;;;-59
2021/11/08 13:57:06;;;;;;;4.25;2.39;;;;;;;19.06;57.16;101093.16;;;;-59
2021/11/08 14:00:07;;;;;;;4.59;2.41;;;;;;;19.04;57.11;101097.84;;;;-59
2021/11/08 14:03:06;;;;;;;3.02;2.17;;;;;;;19.04;57.13;101102.30;;;;-59
2021/11/08 14:06:07;;;;;;;3.13;2.28;;;;;;;19.03;57.12;101107.80;;;;-50
2021/11/08 14:09:06;;;;;;;2.65;2.23;;;;;;;19.01;57.13;101108.92;;;;-50
2021/11/08 14:12:06;;;;;;;2.67;2.25;;;;;;;19.00;57.15;101108.16;;;;-50
2021/11/08 14:15:07;;;;;;;3.94;2.45;;;;;;;18.99;57.16;101108.08;;;;-50
2021/11/08 14:18:06;;;;;;;3.37;2.31;;;;;;;18.97;57.18;101107.47;;;;-57
2021/11/08 14:21:06;;;;;;;2.86;2.21;;;;;;;18.96;57.18;101105.97;;;;-51
2021/11/08 14:24:07;;;;;;;3.74;2.20;;;;;;;18.95;57.19;101103.20;;;;-51
2021/11/08 14:27:07;;;;;;;2.70;2.23;;;;;;;18.94;57.13;101104.14;;;;-51
2021/11/08 14:30:06;;;;;;;3.25;2.28;;;;;;;18.93;57.20;101102.84;;;;-51
2021/11/08 14:33:06;;;;;;;2.18;1.91;;;;;;;18.91;57.18;101100.20;;;;-50
2021/11/08 14:36:06;;;;;;;2.61;2.27;;;;;;;18.91;57.20;101101.50;;;;-59
2021/11/08 14:39:08;;;;;;;2.26;1.99;;;;;;;18.89;57.19;101101.38;;;;-59
2021/11/08 14:42:08;;;;;;;2.47;2.07;;;;;;;18.88;57.22;101099.23;;;;-50
2021/11/08 14:45:06;;;;;;;2.63;2.18;;;;;;;18.87;57.22;101101.42;;;;-50
2021/11/08 14:48:07;;;;;;;2.88;2.21;;;;;;;18.86;57.21;101102.20;;;;-59
2021/11/08 14:51:06;;;;;;;2.75;2.22;;;;;;;18.85;57.25;101102.77;;;;-50
2021/11/08 14:54:06;;;;;;;2.28;2.00;;;;;;;18.84;57.23;101102.73;;;;-51
2021/11/08 14:57:07;;;;;;;3.26;2.06;;;;;;;18.83;57.31;101100.61;;;;-58
2021/11/08 15:00:06;;;;;;;2.75;2.01;;;;;;;18.81;57.26;101093.19;;;;-50
2021/11/08 15:03:07;;;;;;;2.75;2.00;;;;;;;18.81;57.30;101099.03;;;;-50
2021/11/08 15:06:06;;;;;;;2.27;2.05;;;;;;;18.80;57.29;101099.08;;;;-50
2021/11/08 15:09:06;;;;;;;3.45;2.24;;;;;;;18.79;57.33;101098.02;;;;-51
2021/11/08 15:12:07;;;;;;;2.37;2.09;;;;;;;18.78;57.35;101098.72;;;;-50
2021/11/08 15:15:06;;;;;;;2.61;2.02;;;;;;;18.78;57.34;101099.77;;;;-50
2021/11/08 15:18:07;;;;;;;2.40;2.11;;;;;;;18.77;57.33;101101.11;;;;-50
2021/11/08 15:21:07;;;;;;;2.26;2.06;;;;;;;18.77;57.35;101101.36;;;;-59
2021/11/08 15:24:06;;;;;;;2.64;2.01;;;;;;;18.76;57.34;101104.44;;;;-50
2021/11/08 15:27:07;;;;;;;2.56;2.17;;;;;;;18.75;57.36;101107.25;;;;-59
2021/11/08 15:30:06;;;;;;;2.87;2.09;;;;;;;18.75;57.36;101106.68;;;;-59
2021/11/08 15:33:06;;;;;;;2.92;2.21;;;;;;;18.75;57.33;101110.66;;;;-59
2021/11/08 15:36:06;;;;;;;3.04;2.32;;;;;;;18.75;57.33;101116.09;;;;-51
2021/11/08 15:39:06;;;;;;;3.21;2.11;;;;;;;18.75;57.33;101122.10;;;;-51
2021/11/08 15:42:07;;;;;;;12.29;2.51;;;;;;;18.75;57.75;101117.23;;;;-49
2021/11/08 15:45:06;;;;;;;5.42;2.26;;;;;;;18.77;57.97;101122.23;;;;-54
2021/11/08 15:48:06;;;;;;;5.79;2.14;;;;;;;18.81;58.01;101125.19;;;;-57
2021/11/08 15:51:06;;;;;;;4.05;2.11;;;;;;;18.84;58.04;101132.56;;;;-48
2021/11/08 15:54:07;;;;;;;4.35;2.24;;;;;;;18.89;58.04;101137.77;;;;-57
2021/11/08 15:57:06;;;;;;;6.57;2.18;;;;;;;18.93;57.95;101138.73;;;;-47
2021/11/08 16:00:06;;;;;;;9.33;2.37;;;;;;;18.96;57.82;101142.28;;;;-51
2021/11/08 16:03:06;;;;;;;5.93;2.28;;;;;;;19.01;57.99;101141.25;;;;-50
2021/11/08 16:06:06;;;;;;;4.62;2.07;;;;;;;19.05;58.23;101135.61;;;;-51
2021/11/08 16:09:21;;;;;;;4.87;2.16;;;;;;;19.09;58.02;101143.36;;;;-46
2021/11/08 16:12:10;;;;;;;6.33;2.21;;;;;;;19.15;58.11;101148.73;;;;-46
2021/11/08 16:15:06;;;;;;;2.72;2.11;;;;;;;19.19;58.23;101157.17;;;;-53
2021/11/08 16:18:06;;;;;;;3.92;2.27;;;;;;;19.23;58.30;101153.43;;;;-47
2021/11/08 16:21:08;;;;;;;2.97;2.01;;;;;;;19.29;58.52;101152.00;;;;-55
2021/11/08 16:24:07;;;;;;;5.85;2.29;;;;;;;19.32;58.43;101154.19;;;;-54
2021/11/08 16:27:06;;;;;;;2.58;1.94;;;;;;;19.36;58.37;101156.26;;;;-51
2021/11/08 16:30:06;;;;;;;4.02;2.37;;;;;;;19.40;58.53;101152.30;;;;-57
2021/11/08 16:33:07;;;;;;;4.59;2.05;;;;;;;19.44;58.43;101151.36;;;;-47
2021/11/08 16:36:06;;;;;;;3.18;2.18;;;;;;;19.48;58.21;101145.91;;;;-49
2021/11/08 16:39:06;;;;;;;3.31;2.21;;;;;;;19.50;57.93;101153.50;;;;-50
2021/11/08 16:42:07;;;;;;;2.49;2.01;;;;;;;19.55;57.78;101156.05;;;;-61
2021/11/08 16:45:06;;;;;;;3.63;2.11;;;;;;;19.57;57.71;101162.75;;;;-62
2021/11/08 16:48:07;;;;;;;3.45;1.96;;;;;;;19.60;57.77;101172.95;;;;-57
2021/11/08 16:51:06;;;;;;;4.34;2.03;;;;;;;19.63;58.03;101177.45;;;;-51
2021/11/08 16:54:06;;;;;;;3.03;2.03;;;;;;;19.65;57.96;101180.86;;;;-52
2021/11/08 16:57:06;;;;;;;4.01;2.17;;;;;;;19.70;58.24;101183.53;;;;-51
2021/11/08 17:00:07;;;;;;;3.39;2.11;;;;;;;19.73;58.20;101187.99;;;;-60
2021/11/08 17:03:07;;;;;;;6.21;2.16;;;;;;;19.74;58.05;101188.11;;;;-56
2021/11/08 17:06:09;;;;;;;3.81;1.92;;;;;;;19.76;58.33;101188.30;;;;-59
2021/11/08 17:09:19;;;;;;;3.03;2.03;;;;;;;19.76;57.94;101190.91;;;;-60
2021/11/08 17:15:06;;;;;;;4.55;1.97;;;;;;;19.79;58.18;101198.67;;;;-51
2021/11/08 17:18:07;;;;;;;3.67;1.92;;;;;;;19.80;58.01;101200.00;;;;-48
2021/11/08 17:21:07;;;;;;;6.90;2.08;;;;;;;19.82;58.00;101201.18;;;;-58
2021/11/08 17:24:07;;;;;;;3.92;2.10;;;;;;;19.84;57.96;101205.81;;;;-52
2021/11/08 17:27:07;;;;;;;3.39;1.94;;;;;;;19.85;57.78;101206.59;;;;-56
2021/11/08 17:30:06;;;;;;;2.90;2.09;;;;;;;19.88;58.01;101215.35;;;;-59
2021/11/08 17:33:06;;;;;;;4.69;2.00;;;;;;;19.89;57.56;101219.83;;;;-50
2021/11/08 17:36:07;;;;;;;3.61;2.06;;;;;;;19.91;58.00;101227.02;;;;-56
2021/11/08 17:39:06;;;;;;;3.08;2.00;;;;;;;19.94;58.29;101228.15;;;;-55
2021/11/08 17:42:06;;;;;;;3.83;2.19;;;;;;;19.97;58.39;101228.75;;;;-49
2021/11/08 17:45:33;;;;;;;6.35;2.35;;;;;;;19.97;57.65;101228.10;;;;-46
2021/11/08 17:48:09;;;;;;;6.54;2.15;;;;;;;20.01;57.85;101231.09;;;;-52
2021/11/08 17:51:06;;;;;;;4.58;2.06;;;;;;;20.00;57.49;101235.46;;;;-57
2021/11/08 17:54:07;;;;;;;3.45;2.01;;;;;;;20.00;57.39;101240.75;;;;-51
2021/11/08 17:57:06;;;;;;;3.80;2.15;;;;;;;19.99;57.39;101244.16;;;;-51
2021/11/08 18:00:07;;;;;;;3.06;1.98;;;;;;;20.00;57.36;101241.40;;;;-51
2021/11/08 18:03:06;;;;;;;4.03;2.17;;;;;;;20.00;57.31;101249.70;;;;-51